<?xml version="1.0" encoding="UTF-8" standalone="no" ?>
<gpx xmlns="http://www.topografix.com/GPX/1/1" xmlns:xsi="http://www.w3.org/2001/XMLSchema-instance" xsi:schemaLocation="http://www.topografix.com/GPX/1/1 http://www.topografix.com/GPX/1/1/gpx.xsd" version="1.1" creator="VisuGPX - https://www.visugpx.com">
  <metadata>
    <name>Edirne-Zagreb</name>
  </metadata>
  <trk>
    <name><![CDATA[Tour d'Europe: étape 668]]></name>
    <extensions>
      <line xmlns="http://www.topografix.com/GPX/gpx_style/0/2">
        <color>00FF00</color>
        <width>4</width>
      </line>
    </extensions>
    <trkseg>
      <trkpt lat="41.51496" lon="20.53273">
        <ele>709.729914</ele>
        <time>2022-04-27T08:26:40.761Z</time>
      </trkpt>
      <trkpt lat="41.5164" lon="20.53217">
        <ele>721.101743</ele>
        <time>2022-04-27T08:36:56.773Z</time>
      </trkpt>
      <trkpt lat="41.51792" lon="20.53024">
        <ele>724.707614</ele>
        <time>2022-04-27T08:38:03.800Z</time>
      </trkpt>
      <trkpt lat="41.5192" lon="20.52868">
        <ele>715.805012</ele>
        <time>2022-04-27T08:38:47.811Z</time>
      </trkpt>
      <trkpt lat="41.51921" lon="20.52511">
        <ele>700.767948</ele>
        <time>2022-04-27T08:39:29.768Z</time>
      </trkpt>
      <trkpt lat="41.51796" lon="20.5228">
        <ele>693.907053</ele>
        <time>2022-04-27T08:40:15.774Z</time>
      </trkpt>
      <trkpt lat="41.51626" lon="20.52086">
        <ele>694.236562</ele>
        <time>2022-04-27T08:41:07.783Z</time>
      </trkpt>
      <trkpt lat="41.51459" lon="20.51874">
        <ele>692.65299</ele>
        <time>2022-04-27T08:41:58.820Z</time>
      </trkpt>
      <trkpt lat="41.51279" lon="20.51651">
        <ele>688.769422</ele>
        <time>2022-04-27T08:42:39.763Z</time>
      </trkpt>
      <trkpt lat="41.51084" lon="20.51475">
        <ele>684.955424</ele>
        <time>2022-04-27T08:43:33.761Z</time>
      </trkpt>
      <trkpt lat="41.50928" lon="20.51298">
        <ele>679.021817</ele>
        <time>2022-04-27T08:44:13.823Z</time>
      </trkpt>
      <trkpt lat="41.50774" lon="20.51059">
        <ele>678.601999</ele>
        <time>2022-04-27T08:44:55.765Z</time>
      </trkpt>
      <trkpt lat="41.50633" lon="20.50772">
        <ele>677.663543</ele>
        <time>2022-04-27T08:45:37.781Z</time>
      </trkpt>
      <trkpt lat="41.50451" lon="20.50637">
        <ele>670.682898</ele>
        <time>2022-04-27T08:46:24.778Z</time>
      </trkpt>
      <trkpt lat="41.50208" lon="20.50564">
        <ele>665.426994</ele>
        <time>2022-04-27T08:47:07.778Z</time>
      </trkpt>
      <trkpt lat="41.49961" lon="20.50356">
        <ele>653.880334</ele>
        <time>2022-04-27T08:47:41.810Z</time>
      </trkpt>
      <trkpt lat="41.49739" lon="20.50405">
        <ele>637.318276</ele>
        <time>2022-04-27T08:48:10.765Z</time>
      </trkpt>
      <trkpt lat="41.49548" lon="20.50587">
        <ele>628.348738</ele>
        <time>2022-04-27T08:48:50.769Z</time>
      </trkpt>
      <trkpt lat="41.49332" lon="20.50614">
        <ele>622.934385</ele>
        <time>2022-04-27T08:49:51.774Z</time>
      </trkpt>
      <trkpt lat="41.49177" lon="20.50776">
        <ele>628.433619</ele>
        <time>2022-04-27T08:51:13.773Z</time>
      </trkpt>
      <trkpt lat="41.49038" lon="20.50958">
        <ele>643.587513</ele>
        <time>2022-04-27T08:53:19.758Z</time>
      </trkpt>
      <trkpt lat="41.48862" lon="20.51096">
        <ele>662.58384</ele>
        <time>2022-04-27T08:55:32.800Z</time>
      </trkpt>
      <trkpt lat="41.48677" lon="20.51169">
        <ele>675.434137</ele>
        <time>2022-04-27T08:57:43.769Z</time>
      </trkpt>
      <trkpt lat="41.48474" lon="20.51148">
        <ele>687.032545</ele>
        <time>2022-04-27T09:00:05.774Z</time>
      </trkpt>
      <trkpt lat="41.48285" lon="20.5112">
        <ele>702.077371</ele>
        <time>2022-04-27T09:02:18.776Z</time>
      </trkpt>
      <trkpt lat="41.48085" lon="20.51124">
        <ele>714.775855</ele>
        <time>2022-04-27T09:04:23.771Z</time>
      </trkpt>
      <trkpt lat="41.47904" lon="20.51247">
        <ele>722.680013</ele>
        <time>2022-04-27T09:06:02.795Z</time>
      </trkpt>
      <trkpt lat="41.47702" lon="20.51175">
        <ele>719.520369</ele>
        <time>2022-04-27T09:07:22.774Z</time>
      </trkpt>
      <trkpt lat="41.47484" lon="20.51182">
        <ele>717.608515</ele>
        <time>2022-04-27T09:08:43.777Z</time>
      </trkpt>
      <trkpt lat="41.47269" lon="20.51171">
        <ele>717.680159</ele>
        <time>2022-04-27T09:10:02.764Z</time>
      </trkpt>
      <trkpt lat="41.47064" lon="20.51211">
        <ele>726.310654</ele>
        <time>2022-04-27T09:11:13.781Z</time>
      </trkpt>
      <trkpt lat="41.46873" lon="20.51297">
        <ele>732.885349</ele>
        <time>2022-04-27T09:12:21.770Z</time>
      </trkpt>
      <trkpt lat="41.46715" lon="20.51407">
        <ele>738.324317</ele>
        <time>2022-04-27T09:14:10.769Z</time>
      </trkpt>
      <trkpt lat="41.46609" lon="20.51627">
        <ele>739.948619</ele>
        <time>2022-04-27T09:16:03.800Z</time>
      </trkpt>
      <trkpt lat="41.46409" lon="20.51635">
        <ele>740.786154</ele>
        <time>2022-04-27T09:17:08.785Z</time>
      </trkpt>
      <trkpt lat="41.4628" lon="20.51874">
        <ele>741.762042</ele>
        <time>2022-04-27T09:18:14.783Z</time>
      </trkpt>
      <trkpt lat="41.46095" lon="20.51772">
        <ele>741.347019</ele>
        <time>2022-04-27T09:19:17.774Z</time>
      </trkpt>
      <trkpt lat="41.45937" lon="20.51837">
        <ele>748.533927</ele>
        <time>2022-04-27T09:20:20.782Z</time>
      </trkpt>
      <trkpt lat="41.45898" lon="20.52049">
        <ele>746.849761</ele>
        <time>2022-04-27T09:21:16.802Z</time>
      </trkpt>
      <trkpt lat="41.45786" lon="20.52282">
        <ele>738.126649</ele>
        <time>2022-04-27T09:22:13.793Z</time>
      </trkpt>
      <trkpt lat="41.4556" lon="20.52362">
        <ele>729.578514</ele>
        <time>2022-04-27T09:22:55.756Z</time>
      </trkpt>
      <trkpt lat="41.45486" lon="20.52113">
        <ele>699.976566</ele>
        <time>2022-04-27T09:23:36.757Z</time>
      </trkpt>
      <trkpt lat="41.45332" lon="20.52023">
        <ele>678.254264</ele>
        <time>2022-04-27T09:24:18.770Z</time>
      </trkpt>
      <trkpt lat="41.45195" lon="20.5198">
        <ele>667.951159</ele>
        <time>2022-04-27T09:24:58.774Z</time>
      </trkpt>
      <trkpt lat="41.45015" lon="20.5198">
        <ele>665.726186</ele>
        <time>2022-04-27T09:25:40.776Z</time>
      </trkpt>
      <trkpt lat="41.44836" lon="20.51836">
        <ele>663.066501</ele>
        <time>2022-04-27T09:26:20.771Z</time>
      </trkpt>
      <trkpt lat="41.44739" lon="20.52001">
        <ele>676.13191</ele>
        <time>2022-04-27T09:27:55.756Z</time>
      </trkpt>
      <trkpt lat="41.44735" lon="20.52249">
        <ele>690.553139</ele>
        <time>2022-04-27T09:30:13.745Z</time>
      </trkpt>
      <trkpt lat="41.44697" lon="20.52484">
        <ele>700.937586</ele>
        <time>2022-04-27T09:32:31.749Z</time>
      </trkpt>
      <trkpt lat="41.44618" lon="20.52699">
        <ele>715.781194</ele>
        <time>2022-04-27T09:35:02.745Z</time>
      </trkpt>
      <trkpt lat="41.44631" lon="20.52898">
        <ele>727.958233</ele>
        <time>2022-04-27T09:37:29.757Z</time>
      </trkpt>
      <trkpt lat="41.44468" lon="20.52962">
        <ele>741.096679</ele>
        <time>2022-04-27T09:39:51.750Z</time>
      </trkpt>
      <trkpt lat="41.44318" lon="20.52901">
        <ele>756.319826</ele>
        <time>2022-04-27T09:41:55.746Z</time>
      </trkpt>
      <trkpt lat="41.4426" lon="20.5316">
        <ele>759.975996</ele>
        <time>2022-04-27T09:43:57.745Z</time>
      </trkpt>
      <trkpt lat="41.44189" lon="20.5341">
        <ele>764.162674</ele>
        <time>2022-04-27T09:45:48.742Z</time>
      </trkpt>
      <trkpt lat="41.44178" lon="20.5363">
        <ele>761.801336</ele>
        <time>2022-04-27T09:46:49.741Z</time>
      </trkpt>
      <trkpt lat="41.44385" lon="20.53839">
        <ele>741.09575</ele>
        <time>2022-04-27T09:49:29.747Z</time>
      </trkpt>
      <trkpt lat="41.44304" lon="20.54229">
        <ele>716.664029</ele>
        <time>2022-04-27T09:50:07.743Z</time>
      </trkpt>
      <trkpt lat="41.44373" lon="20.54475">
        <ele>720.915571</ele>
        <time>2022-04-27T09:51:04.738Z</time>
      </trkpt>
      <trkpt lat="41.44509" lon="20.54664">
        <ele>741.369021</ele>
        <time>2022-04-27T09:52:55.746Z</time>
      </trkpt>
      <trkpt lat="41.44477" lon="20.54951">
        <ele>728.010334</ele>
        <time>2022-04-27T09:54:10.744Z</time>
      </trkpt>
      <trkpt lat="41.44312" lon="20.55174">
        <ele>713.665661</ele>
        <time>2022-04-27T09:54:52.755Z</time>
      </trkpt>
      <trkpt lat="41.44123" lon="20.55045">
        <ele>710.920474</ele>
        <time>2022-04-27T09:55:32.753Z</time>
      </trkpt>
      <trkpt lat="41.44013" lon="20.55252">
        <ele>713.704324</ele>
        <time>2022-04-27T09:57:08.748Z</time>
      </trkpt>
      <trkpt lat="41.4382" lon="20.55333">
        <ele>713.33152</ele>
        <time>2022-04-27T09:58:37.743Z</time>
      </trkpt>
      <trkpt lat="41.43631" lon="20.55622">
        <ele>690.962325</ele>
        <time>2022-04-27T09:59:19.751Z</time>
      </trkpt>
      <trkpt lat="41.43347" lon="20.55788">
        <ele>666.227765</ele>
        <time>2022-04-27T09:59:59.743Z</time>
      </trkpt>
      <trkpt lat="41.43115" lon="20.56075">
        <ele>640.914984</ele>
        <time>2022-04-27T10:00:41.743Z</time>
      </trkpt>
      <trkpt lat="41.4284" lon="20.56129">
        <ele>628.063535</ele>
        <time>2022-04-27T10:01:16.743Z</time>
      </trkpt>
      <trkpt lat="41.42657" lon="20.56286">
        <ele>622.021176</ele>
        <time>2022-04-27T10:01:56.746Z</time>
      </trkpt>
      <trkpt lat="41.4247" lon="20.56396">
        <ele>620.798687</ele>
        <time>2022-04-27T10:02:38.747Z</time>
      </trkpt>
      <trkpt lat="41.42274" lon="20.56497">
        <ele>623.261237</ele>
        <time>2022-04-27T10:03:28.762Z</time>
      </trkpt>
      <trkpt lat="41.42088" lon="20.56651">
        <ele>629.255814</ele>
        <time>2022-04-27T10:04:32.754Z</time>
      </trkpt>
      <trkpt lat="41.41938" lon="20.56872">
        <ele>622.962015</ele>
        <time>2022-04-27T10:05:31.774Z</time>
      </trkpt>
      <trkpt lat="41.41749" lon="20.57078">
        <ele>617.760619</ele>
        <time>2022-04-27T10:06:33.772Z</time>
      </trkpt>
      <trkpt lat="41.41585" lon="20.57304">
        <ele>610.533741</ele>
        <time>2022-04-27T10:07:26.769Z</time>
      </trkpt>
      <trkpt lat="41.41363" lon="20.57379">
        <ele>620.106143</ele>
        <time>2022-04-27T10:08:20.745Z</time>
      </trkpt>
      <trkpt lat="41.41121" lon="20.57438">
        <ele>624.76881</ele>
        <time>2022-04-27T10:09:17.739Z</time>
      </trkpt>
      <trkpt lat="41.4089" lon="20.5752">
        <ele>621.266503</ele>
        <time>2022-04-27T10:10:14.742Z</time>
      </trkpt>
      <trkpt lat="41.40695" lon="20.57677">
        <ele>619.535413</ele>
        <time>2022-04-27T10:11:08.743Z</time>
      </trkpt>
      <trkpt lat="41.4053" lon="20.57866">
        <ele>611.304429</ele>
        <time>2022-04-27T10:11:57.743Z</time>
      </trkpt>
      <trkpt lat="41.40412" lon="20.58128">
        <ele>609.166156</ele>
        <time>2022-04-27T10:12:51.746Z</time>
      </trkpt>
      <trkpt lat="41.40193" lon="20.58282">
        <ele>621.795776</ele>
        <time>2022-04-27T10:13:53.738Z</time>
      </trkpt>
      <trkpt lat="41.3999" lon="20.58361">
        <ele>628.686844</ele>
        <time>2022-04-27T10:14:39.745Z</time>
      </trkpt>
      <trkpt lat="41.39779" lon="20.58345">
        <ele>638.212064</ele>
        <time>2022-04-27T10:15:50.757Z</time>
      </trkpt>
      <trkpt lat="41.39581" lon="20.58401">
        <ele>639.401428</ele>
        <time>2022-04-27T10:17:17.741Z</time>
      </trkpt>
      <trkpt lat="41.39305" lon="20.58377">
        <ele>635.481473</ele>
        <time>2022-04-27T10:18:01.818Z</time>
      </trkpt>
      <trkpt lat="41.39051" lon="20.58336">
        <ele>630.205534</ele>
        <time>2022-04-27T10:18:40.759Z</time>
      </trkpt>
      <trkpt lat="41.38832" lon="20.58359">
        <ele>632.233567</ele>
        <time>2022-04-27T10:19:35.746Z</time>
      </trkpt>
      <trkpt lat="41.3861" lon="20.58419">
        <ele>633.768808</ele>
        <time>2022-04-27T10:20:48.744Z</time>
      </trkpt>
      <trkpt lat="41.3839" lon="20.58423">
        <ele>638.317725</ele>
        <time>2022-04-27T10:21:44.745Z</time>
      </trkpt>
      <trkpt lat="41.38195" lon="20.58598">
        <ele>642.350187</ele>
        <time>2022-04-27T10:22:33.734Z</time>
      </trkpt>
      <trkpt lat="41.38058" lon="20.58812">
        <ele>637.920255</ele>
        <time>2022-04-27T10:23:18.768Z</time>
      </trkpt>
      <trkpt lat="41.37871" lon="20.58981">
        <ele>646.454972</ele>
        <time>2022-04-27T10:24:24.776Z</time>
      </trkpt>
      <trkpt lat="41.3774" lon="20.59232">
        <ele>646.140045</ele>
        <time>2022-04-27T10:25:23.746Z</time>
      </trkpt>
      <trkpt lat="41.3755" lon="20.59418">
        <ele>646.376883</ele>
        <time>2022-04-27T10:26:22.755Z</time>
      </trkpt>
      <trkpt lat="41.37367" lon="20.59582">
        <ele>651.958929</ele>
        <time>2022-04-27T10:27:42.738Z</time>
      </trkpt>
      <trkpt lat="41.37179" lon="20.59696">
        <ele>647.120772</ele>
        <time>2022-04-27T10:28:41.745Z</time>
      </trkpt>
      <trkpt lat="41.36995" lon="20.59849">
        <ele>641.433328</ele>
        <time>2022-04-27T10:29:43.735Z</time>
      </trkpt>
      <trkpt lat="41.36937" lon="20.60117">
        <ele>635.29854</ele>
        <time>2022-04-27T10:30:39.737Z</time>
      </trkpt>
      <trkpt lat="41.3682" lon="20.60375">
        <ele>638.688205</ele>
        <time>2022-04-27T10:31:41.739Z</time>
      </trkpt>
      <trkpt lat="41.36615" lon="20.60481">
        <ele>647.607023</ele>
        <time>2022-04-27T10:32:44.741Z</time>
      </trkpt>
      <trkpt lat="41.364" lon="20.6046">
        <ele>650.273462</ele>
        <time>2022-04-27T10:33:45.737Z</time>
      </trkpt>
      <trkpt lat="41.36203" lon="20.60339">
        <ele>649.88733</ele>
        <time>2022-04-27T10:34:49.734Z</time>
      </trkpt>
      <trkpt lat="41.35993" lon="20.60307">
        <ele>645.600321</ele>
        <time>2022-04-27T10:35:50.749Z</time>
      </trkpt>
      <trkpt lat="41.3584" lon="20.60514">
        <ele>647.149178</ele>
        <time>2022-04-27T10:36:49.737Z</time>
      </trkpt>
      <trkpt lat="41.35688" lon="20.60751">
        <ele>653.024308</ele>
        <time>2022-04-27T10:37:48.750Z</time>
      </trkpt>
      <trkpt lat="41.35521" lon="20.60949">
        <ele>650.85716</ele>
        <time>2022-04-27T10:40:48.753Z</time>
      </trkpt>
      <trkpt lat="41.35458" lon="20.61203">
        <ele>662.365132</ele>
        <time>2022-04-27T11:08:46.733Z</time>
      </trkpt>
      <trkpt lat="41.35398" lon="20.61477">
        <ele>666.236404</ele>
        <time>2022-04-27T11:09:46.737Z</time>
      </trkpt>
      <trkpt lat="41.35299" lon="20.61748">
        <ele>658.694405</ele>
        <time>2022-04-27T11:10:51.741Z</time>
      </trkpt>
      <trkpt lat="41.35191" lon="20.61984">
        <ele>650.187859</ele>
        <time>2022-04-27T11:11:50.750Z</time>
      </trkpt>
      <trkpt lat="41.35014" lon="20.6218">
        <ele>652.511487</ele>
        <time>2022-04-27T11:12:57.738Z</time>
      </trkpt>
      <trkpt lat="41.34862" lon="20.62377">
        <ele>664.198928</ele>
        <time>2022-04-27T11:13:59.771Z</time>
      </trkpt>
      <trkpt lat="41.34668" lon="20.62486">
        <ele>684.964851</ele>
        <time>2022-04-27T11:15:08.738Z</time>
      </trkpt>
      <trkpt lat="41.34505" lon="20.62649">
        <ele>695.778991</ele>
        <time>2022-04-27T11:17:17.736Z</time>
      </trkpt>
      <trkpt lat="41.34327" lon="20.62731">
        <ele>695.338527</ele>
        <time>2022-04-27T11:19:09.748Z</time>
      </trkpt>
      <trkpt lat="41.34131" lon="20.62658">
        <ele>688.900455</ele>
        <time>2022-04-27T11:21:22.733Z</time>
      </trkpt>
      <trkpt lat="41.33947" lon="20.62727">
        <ele>691.412996</ele>
        <time>2022-04-27T11:23:26.734Z</time>
      </trkpt>
      <trkpt lat="41.33852" lon="20.62929">
        <ele>707.582508</ele>
        <time>2022-04-27T11:25:42.730Z</time>
      </trkpt>
      <trkpt lat="41.33765" lon="20.63133">
        <ele>722.247619</ele>
        <time>2022-04-27T11:27:47.737Z</time>
      </trkpt>
      <trkpt lat="41.33642" lon="20.63336">
        <ele>732.017395</ele>
        <time>2022-04-27T11:30:01.737Z</time>
      </trkpt>
      <trkpt lat="41.33487" lon="20.63509">
        <ele>735.99152</ele>
        <time>2022-04-27T11:31:29.757Z</time>
      </trkpt>
      <trkpt lat="41.33292" lon="20.63583">
        <ele>741.806733</ele>
        <time>2022-04-27T11:32:33.739Z</time>
      </trkpt>
      <trkpt lat="41.33094" lon="20.63736">
        <ele>741.13377</ele>
        <time>2022-04-27T11:33:38.768Z</time>
      </trkpt>
      <trkpt lat="41.32901" lon="20.63632">
        <ele>743.541985</ele>
        <time>2022-04-27T11:34:38.732Z</time>
      </trkpt>
      <trkpt lat="41.3268" lon="20.6353">
        <ele>745.574107</ele>
        <time>2022-04-27T11:35:41.739Z</time>
      </trkpt>
      <trkpt lat="41.32513" lon="20.63356">
        <ele>743.171263</ele>
        <time>2022-04-27T11:36:41.741Z</time>
      </trkpt>
      <trkpt lat="41.32293" lon="20.63362">
        <ele>747.721391</ele>
        <time>2022-04-27T11:37:44.739Z</time>
      </trkpt>
      <trkpt lat="41.32085" lon="20.6348">
        <ele>745.115561</ele>
        <time>2022-04-27T11:38:45.740Z</time>
      </trkpt>
      <trkpt lat="41.31898" lon="20.63623">
        <ele>740.507847</ele>
        <time>2022-04-27T11:39:45.731Z</time>
      </trkpt>
      <trkpt lat="41.31708" lon="20.63827">
        <ele>735.706245</ele>
        <time>2022-04-27T11:40:47.751Z</time>
      </trkpt>
      <trkpt lat="41.31495" lon="20.63923">
        <ele>740.804851</ele>
        <time>2022-04-27T11:41:48.737Z</time>
      </trkpt>
      <trkpt lat="41.31277" lon="20.63955">
        <ele>740.515067</ele>
        <time>2022-04-27T11:42:51.768Z</time>
      </trkpt>
      <trkpt lat="41.3108" lon="20.63837">
        <ele>734.551763</ele>
        <time>2022-04-27T11:43:51.741Z</time>
      </trkpt>
      <trkpt lat="41.31044" lon="20.63548">
        <ele>749.217625</ele>
        <time>2022-04-27T11:44:55.741Z</time>
      </trkpt>
      <trkpt lat="41.31005" lon="20.63263">
        <ele>747.473649</ele>
        <time>2022-04-27T11:45:58.753Z</time>
      </trkpt>
      <trkpt lat="41.30837" lon="20.63155">
        <ele>736.936028</ele>
        <time>2022-04-27T11:46:57.728Z</time>
      </trkpt>
      <trkpt lat="41.30639" lon="20.63024">
        <ele>734.501159</ele>
        <time>2022-04-27T11:48:00.736Z</time>
      </trkpt>
      <trkpt lat="41.30431" lon="20.62999">
        <ele>734.741795</ele>
        <time>2022-04-27T11:48:59.733Z</time>
      </trkpt>
      <trkpt lat="41.30273" lon="20.62799">
        <ele>740.48421</ele>
        <time>2022-04-27T11:50:02.738Z</time>
      </trkpt>
      <trkpt lat="41.30285" lon="20.62515">
        <ele>748.195791</ele>
        <time>2022-04-27T11:51:06.731Z</time>
      </trkpt>
      <trkpt lat="41.30259" lon="20.62241">
        <ele>749.644368</ele>
        <time>2022-04-27T11:52:11.728Z</time>
      </trkpt>
      <trkpt lat="41.30089" lon="20.62032">
        <ele>746.111513</ele>
        <time>2022-04-27T11:53:14.750Z</time>
      </trkpt>
      <trkpt lat="41.29872" lon="20.61972">
        <ele>750.786396</ele>
        <time>2022-04-27T11:54:15.726Z</time>
      </trkpt>
      <trkpt lat="41.29633" lon="20.61983">
        <ele>752.626834</ele>
        <time>2022-04-27T11:55:18.733Z</time>
      </trkpt>
      <trkpt lat="41.29424" lon="20.62068">
        <ele>752.184296</ele>
        <time>2022-04-27T11:56:18.732Z</time>
      </trkpt>
      <trkpt lat="41.29208" lon="20.62098">
        <ele>754.010929</ele>
        <time>2022-04-27T11:57:20.736Z</time>
      </trkpt>
      <trkpt lat="41.29008" lon="20.61975">
        <ele>760.000777</ele>
        <time>2022-04-27T11:58:20.728Z</time>
      </trkpt>
      <trkpt lat="41.28809" lon="20.6181">
        <ele>752.97593</ele>
        <time>2022-04-27T11:59:23.737Z</time>
      </trkpt>
      <trkpt lat="41.28613" lon="20.61662">
        <ele>748.564458</ele>
        <time>2022-04-27T12:00:31.734Z</time>
      </trkpt>
      <trkpt lat="41.28401" lon="20.61565">
        <ele>738.680425</ele>
        <time>2022-04-27T12:01:31.728Z</time>
      </trkpt>
      <trkpt lat="41.2822" lon="20.61385">
        <ele>742.829628</ele>
        <time>2022-04-27T12:02:34.761Z</time>
      </trkpt>
      <trkpt lat="41.28221" lon="20.61666">
        <ele>747.369376</ele>
        <time>2022-04-27T12:03:33.730Z</time>
      </trkpt>
      <trkpt lat="41.28093" lon="20.61929">
        <ele>746.534822</ele>
        <time>2022-04-27T12:04:35.734Z</time>
      </trkpt>
      <trkpt lat="41.27896" lon="20.62058">
        <ele>752.195123</ele>
        <time>2022-04-27T12:05:33.741Z</time>
      </trkpt>
      <trkpt lat="41.27694" lon="20.62225">
        <ele>754.778881</ele>
        <time>2022-04-27T12:06:36.742Z</time>
      </trkpt>
      <trkpt lat="41.27551" lon="20.6248">
        <ele>750.45165</ele>
        <time>2022-04-27T12:07:39.739Z</time>
      </trkpt>
      <trkpt lat="41.27345" lon="20.6258">
        <ele>756.013685</ele>
        <time>2022-04-27T12:08:39.726Z</time>
      </trkpt>
      <trkpt lat="41.27104" lon="20.62595">
        <ele>760.336449</ele>
        <time>2022-04-27T12:09:42.756Z</time>
      </trkpt>
      <trkpt lat="41.26889" lon="20.62563">
        <ele>755.09186</ele>
        <time>2022-04-27T12:10:39.770Z</time>
      </trkpt>
      <trkpt lat="41.26629" lon="20.62689">
        <ele>743.021098</ele>
        <time>2022-04-27T12:11:23.767Z</time>
      </trkpt>
      <trkpt lat="41.26688" lon="20.6291">
        <ele>733.206043</ele>
        <time>2022-04-27T12:12:03.744Z</time>
      </trkpt>
      <trkpt lat="41.26647" lon="20.63146">
        <ele>735.778701</ele>
        <time>2022-04-27T12:12:56.797Z</time>
      </trkpt>
      <trkpt lat="41.26459" lon="20.63327">
        <ele>741.22865</ele>
        <time>2022-04-27T12:13:58.797Z</time>
      </trkpt>
      <trkpt lat="41.26283" lon="20.63434">
        <ele>749.951706</ele>
        <time>2022-04-27T12:15:55.789Z</time>
      </trkpt>
      <trkpt lat="41.26127" lon="20.63585">
        <ele>761.341335</ele>
        <time>2022-04-27T12:18:01.753Z</time>
      </trkpt>
      <trkpt lat="41.25947" lon="20.63627">
        <ele>759.979621</ele>
        <time>2022-04-27T12:19:38.735Z</time>
      </trkpt>
      <trkpt lat="41.25744" lon="20.63582">
        <ele>760.863243</ele>
        <time>2022-04-27T12:20:43.738Z</time>
      </trkpt>
      <trkpt lat="41.2554" lon="20.63541">
        <ele>765.141909</ele>
        <time>2022-04-27T12:21:57.734Z</time>
      </trkpt>
      <trkpt lat="41.25323" lon="20.6355">
        <ele>767.45609</ele>
        <time>2022-04-27T12:23:07.726Z</time>
      </trkpt>
      <trkpt lat="41.25143" lon="20.63694">
        <ele>771.867398</ele>
        <time>2022-04-27T12:24:10.734Z</time>
      </trkpt>
      <trkpt lat="41.24963" lon="20.63862">
        <ele>769.839776</ele>
        <time>2022-04-27T12:25:10.734Z</time>
      </trkpt>
      <trkpt lat="41.24752" lon="20.63998">
        <ele>765.396689</ele>
        <time>2022-04-27T12:28:53.745Z</time>
      </trkpt>
      <trkpt lat="41.24526" lon="20.64119">
        <ele>763.297047</ele>
        <time>2022-04-27T12:29:37.736Z</time>
      </trkpt>
      <trkpt lat="41.24309" lon="20.64191">
        <ele>770.279202</ele>
        <time>2022-04-27T12:30:49.733Z</time>
      </trkpt>
      <trkpt lat="41.2411" lon="20.64167">
        <ele>769.039985</ele>
        <time>2022-04-27T12:31:46.741Z</time>
      </trkpt>
      <trkpt lat="41.23887" lon="20.64147">
        <ele>782.623674</ele>
        <time>2022-04-27T12:33:01.761Z</time>
      </trkpt>
      <trkpt lat="41.23675" lon="20.64237">
        <ele>773.957876</ele>
        <time>2022-04-27T12:33:58.729Z</time>
      </trkpt>
      <trkpt lat="41.23491" lon="20.64394">
        <ele>771.338293</ele>
        <time>2022-04-27T12:34:56.743Z</time>
      </trkpt>
      <trkpt lat="41.23281" lon="20.64564">
        <ele>764.28042</ele>
        <time>2022-04-27T12:35:54.736Z</time>
      </trkpt>
      <trkpt lat="41.23074" lon="20.64719">
        <ele>756.10122</ele>
        <time>2022-04-27T12:36:50.743Z</time>
      </trkpt>
      <trkpt lat="41.22864" lon="20.64877">
        <ele>750.62661</ele>
        <time>2022-04-27T12:37:36.735Z</time>
      </trkpt>
      <trkpt lat="41.22658" lon="20.65029">
        <ele>747.12345</ele>
        <time>2022-04-27T12:38:16.741Z</time>
      </trkpt>
      <trkpt lat="41.22476" lon="20.65165">
        <ele>746.206546</ele>
        <time>2022-04-27T12:38:58.734Z</time>
      </trkpt>
      <trkpt lat="41.22297" lon="20.65297">
        <ele>747.945858</ele>
        <time>2022-04-27T12:39:40.735Z</time>
      </trkpt>
      <trkpt lat="41.22114" lon="20.65437">
        <ele>748.335939</ele>
        <time>2022-04-27T12:40:20.739Z</time>
      </trkpt>
      <trkpt lat="41.21918" lon="20.65589">
        <ele>747.738065</ele>
        <time>2022-04-27T12:41:02.733Z</time>
      </trkpt>
      <trkpt lat="41.21743" lon="20.65729">
        <ele>745.192172</ele>
        <time>2022-04-27T12:41:42.738Z</time>
      </trkpt>
      <trkpt lat="41.21544" lon="20.65886">
        <ele>738.837661</ele>
        <time>2022-04-27T12:42:24.741Z</time>
      </trkpt>
      <trkpt lat="41.21343" lon="20.66081">
        <ele>737.898855</ele>
        <time>2022-04-27T12:43:04.736Z</time>
      </trkpt>
      <trkpt lat="41.21129" lon="20.66298">
        <ele>736.879684</ele>
        <time>2022-04-27T12:43:46.734Z</time>
      </trkpt>
      <trkpt lat="41.20962" lon="20.66468">
        <ele>734.515734</ele>
        <time>2022-04-27T12:44:33.742Z</time>
      </trkpt>
      <trkpt lat="41.20801" lon="20.66644">
        <ele>733.901908</ele>
        <time>2022-04-27T12:45:13.757Z</time>
      </trkpt>
      <trkpt lat="41.20659" lon="20.66881">
        <ele>732.473911</ele>
        <time>2022-04-27T12:45:55.730Z</time>
      </trkpt>
      <trkpt lat="41.20532" lon="20.67114">
        <ele>731.404594</ele>
        <time>2022-04-27T12:46:35.737Z</time>
      </trkpt>
      <trkpt lat="41.20362" lon="20.67261">
        <ele>732.580812</ele>
        <time>2022-04-27T12:47:17.757Z</time>
      </trkpt>
      <trkpt lat="41.2016" lon="20.67324">
        <ele>730.817843</ele>
        <time>2022-04-27T12:47:59.738Z</time>
      </trkpt>
      <trkpt lat="41.19958" lon="20.67436">
        <ele>731.659051</ele>
        <time>2022-04-27T12:48:41.726Z</time>
      </trkpt>
      <trkpt lat="41.19753" lon="20.6757">
        <ele>735.290323</ele>
        <time>2022-04-27T12:49:37.728Z</time>
      </trkpt>
      <trkpt lat="41.19556" lon="20.67663">
        <ele>732.198954</ele>
        <time>2022-04-27T12:50:25.728Z</time>
      </trkpt>
      <trkpt lat="41.1934" lon="20.67684">
        <ele>734.201156</ele>
        <time>2022-04-27T12:51:10.733Z</time>
      </trkpt>
      <trkpt lat="41.19118" lon="20.67651">
        <ele>734.82691</ele>
        <time>2022-04-27T12:52:00.742Z</time>
      </trkpt>
      <trkpt lat="41.18882" lon="20.67612">
        <ele>735.544578</ele>
        <time>2022-04-27T12:52:53.734Z</time>
      </trkpt>
      <trkpt lat="41.18653" lon="20.67575">
        <ele>739.167337</ele>
        <time>2022-04-27T12:53:45.736Z</time>
      </trkpt>
      <trkpt lat="41.18418" lon="20.67539">
        <ele>738.944263</ele>
        <time>2022-04-27T12:54:39.737Z</time>
      </trkpt>
      <trkpt lat="41.18204" lon="20.67587">
        <ele>741.588446</ele>
        <time>2022-04-27T12:55:27.734Z</time>
      </trkpt>
      <trkpt lat="41.17965" lon="20.67629">
        <ele>754.361473</ele>
        <time>2022-04-27T12:56:25.734Z</time>
      </trkpt>
      <trkpt lat="41.17736" lon="20.67608">
        <ele>758.352226</ele>
        <time>2022-04-27T12:57:29.746Z</time>
      </trkpt>
      <trkpt lat="41.17626" lon="20.67621">
        <ele>758.352226</ele>
        <time>2022-04-27T12:59:11.107Z</time>
      </trkpt>
    </trkseg>
  </trk>
</gpx>